sensor_id;sensor_type;location;lat;lon;timestamp;pressure;altitude;pressure_sealevel;temperature;humidity
78932;BME280;68331;53.362;55.932;2023-04-24T00:00:56;100381.38;;;5.53;65.13
78932;BME280;68331;53.362;55.932;2023-04-24T00:03:23;100383.09;;;5.51;65.04
78932;BME280;68331;53.362;55.932;2023-04-24T00:05:49;100390.97;;;5.51;64.99
78932;BME280;68331;53.362;55.932;2023-04-24T00:08:17;100389.25;;;5.47;65.07
78932;BME280;68331;53.362;55.932;2023-04-24T00:10:43;100398.81;;;5.45;65.37
78932;BME280;68331;53.362;55.932;2023-04-24T00:13:09;100392.72;;;5.44;65.25
78932;BME280;68331;53.362;55.932;2023-04-24T00:15:35;100394.44;;;5.45;65.21
78932;BME280;68331;53.362;55.932;2023-04-24T00:18:01;100397.97;;;5.46;65.50
78932;BME280;68331;53.362;55.932;2023-04-24T00:20:28;100391.00;;;5.40;65.45
78932;BME280;68331;53.362;55.932;2023-04-24T00:22:59;100404.94;;;5.38;65.64
78932;BME280;68331;53.362;55.932;2023-04-24T00:25:25;100405.81;;;5.43;65.46
78932;BME280;68331;53.362;55.932;2023-04-24T00:27:50;100410.16;;;5.51;64.82
78932;BME280;68331;53.362;55.932;2023-04-24T00:30:17;100406.66;;;5.57;64.50
78932;BME280;68331;53.362;55.932;2023-04-24T00:32:43;100414.50;;;5.60;64.24
78932;BME280;68331;53.362;55.932;2023-04-24T00:35:09;100400.53;;;5.59;64.19
78932;BME280;68331;53.362;55.932;2023-04-24T00:37:34;100407.53;;;5.56;64.54
78932;BME280;68331;53.362;55.932;2023-04-24T00:40:01;100416.28;;;5.49;64.92
78932;BME280;68331;53.362;55.932;2023-04-24T00:42:30;100413.66;;;5.46;64.86
78932;BME280;68331;53.362;55.932;2023-04-24T00:44:56;100415.38;;;5.45;65.34
78932;BME280;68331;53.362;55.932;2023-04-24T00:47:23;100423.22;;;5.51;65.20
78932;BME280;68331;53.362;55.932;2023-04-24T00:49:51;100418.84;;;5.55;64.75
78932;BME280;68331;53.362;55.932;2023-04-24T00:52:18;100418.00;;;5.56;64.89
78932;BME280;68331;53.362;55.932;2023-04-24T00:54:44;100424.09;;;5.53;64.98
78932;BME280;68331;53.362;55.932;2023-04-24T00:57:14;100421.53;;;5.49;65.09
78932;BME280;68331;53.362;55.932;2023-04-24T00:59:42;100424.97;;;5.54;64.79
78932;BME280;68331;53.362;55.932;2023-04-24T01:02:09;100432.84;;;5.55;64.87
78932;BME280;68331;53.362;55.932;2023-04-24T01:04:36;100429.34;;;5.56;64.88
78932;BME280;68331;53.362;55.932;2023-04-24T01:07:04;100427.59;;;5.60;64.79
78932;BME280;68331;53.362;55.932;2023-04-24T01:09:40;100425.00;;;5.55;64.73
78932;BME280;68331;53.362;55.932;2023-04-24T01:12:09;100418.00;;;5.54;64.73
78932;BME280;68331;53.362;55.932;2023-04-24T01:14:37;100438.03;;;5.66;64.49
78932;BME280;68331;53.362;55.932;2023-04-24T01:17:04;100438.03;;;5.65;64.44
78932;BME280;68331;53.362;55.932;2023-04-24T01:19:30;100454.63;;;5.71;64.47
78932;BME280;68331;53.362;55.932;2023-04-24T01:21:58;100453.72;;;5.74;64.65
78932;BME280;68331;53.362;55.932;2023-04-24T01:24:25;100451.97;;;5.76;64.29
78932;BME280;68331;53.362;55.932;2023-04-24T01:26:51;100458.97;;;5.78;64.41
78932;BME280;68331;53.362;55.932;2023-04-24T01:29:18;100461.56;;;5.80;64.26
78932;BME280;68331;53.362;55.932;2023-04-24T01:31:45;100467.66;;;5.80;64.18
78932;BME280;68331;53.362;55.932;2023-04-24T01:34:10;100472.03;;;5.80;64.19
78932;BME280;68331;53.362;55.932;2023-04-24T01:36:37;100465.03;;;5.80;64.20
78932;BME280;68331;53.362;55.932;2023-04-24T01:39:03;100471.19;;;5.81;64.21
78932;BME280;68331;53.362;55.932;2023-04-24T01:41:30;100465.94;;;5.79;64.31
78932;BME280;68331;53.362;55.932;2023-04-24T01:43:57;100475.50;;;5.80;64.48
78932;BME280;68331;53.362;55.932;2023-04-24T01:46:23;100475.50;;;5.83;64.24
78932;BME280;68331;53.362;55.932;2023-04-24T01:48:50;100479.00;;;5.89;64.26
78932;BME280;68331;53.362;55.932;2023-04-24T01:51:19;100481.63;;;5.92;63.77
78932;BME280;68331;53.362;55.932;2023-04-24T01:53:45;100489.50;;;5.98;63.87
78932;BME280;68331;53.362;55.932;2023-04-24T01:56:11;100492.94;;;6.06;63.63
78932;BME280;68331;53.362;55.932;2023-04-24T01:58:38;100498.16;;;6.15;63.30
78932;BME280;68331;53.362;55.932;2023-04-24T02:01:06;100503.38;;;6.21;63.06
78932;BME280;68331;53.362;55.932;2023-04-24T02:03:32;100501.59;;;6.33;62.87
78932;BME280;68331;53.362;55.932;2023-04-24T02:05:58;100505.91;;;6.43;62.68
78932;BME280;68331;53.362;55.932;2023-04-24T02:08:25;100505.00;;;6.53;62.28
78932;BME280;68331;53.362;55.932;2023-04-24T02:10:51;100503.22;;;6.58;62.26
78932;BME280;68331;53.362;55.932;2023-04-24T02:13:17;100513.69;;;6.67;62.20
78932;BME280;68331;53.362;55.932;2023-04-24T02:15:43;100517.09;;;6.75;61.60
78932;BME280;68331;53.362;55.932;2023-04-24T02:18:09;100512.69;;;6.85;61.62
78932;BME280;68331;53.362;55.932;2023-04-24T02:20:37;100516.03;;;7.07;60.93
78932;BME280;68331;53.362;55.932;2023-04-24T02:23:03;100514.19;;;7.23;60.82
78932;BME280;68331;53.362;55.932;2023-04-24T02:25:29;100521.94;;;7.38;60.04
78932;BME280;68331;53.362;55.932;2023-04-24T02:27:55;100521.00;;;7.45;60.02
78932;BME280;68331;53.362;55.932;2023-04-24T02:30:22;100514.00;;;7.48;59.73
78932;BME280;68331;53.362;55.932;2023-04-24T02:32:48;100527.88;;;7.63;59.56
78932;BME280;68331;53.362;55.932;2023-04-24T02:35:14;100519.97;;;7.66;59.68
78932;BME280;68331;53.362;55.932;2023-04-24T02:37:40;100516.41;;;7.71;59.42
78932;BME280;68331;53.362;55.932;2023-04-24T02:40:12;100538.75;;;8.14;58.67
78932;BME280;68331;53.362;55.932;2023-04-24T02:42:38;100535.66;;;8.56;57.69
78932;BME280;68331;53.362;55.932;2023-04-24T02:45:04;100539.75;;;8.77;56.88
78932;BME280;68331;53.362;55.932;2023-04-24T02:47:32;100541.22;;;8.99;56.27
78932;BME280;68331;53.362;55.932;2023-04-24T02:49:59;100540.22;;;9.08;56.43
78932;BME280;68331;53.362;55.932;2023-04-24T02:52:25;100544.03;;;9.97;54.47
78932;BME280;68331;53.362;55.932;2023-04-24T02:54:51;100545.13;;;10.33;53.10
78932;BME280;68331;53.362;55.932;2023-04-24T02:57:19;100539.50;;;10.04;53.59
78932;BME280;68331;53.362;55.932;2023-04-24T02:59:45;100539.56;;;10.00;53.91
78932;BME280;68331;53.362;55.932;2023-04-24T03:02:12;100546.13;;;9.80;53.90
78932;BME280;68331;53.362;55.932;2023-04-24T03:04:39;100544.56;;;9.66;54.34
78932;BME280;68331;53.362;55.932;2023-04-24T03:07:06;100553.47;;;9.61;54.42
78932;BME280;68331;53.362;55.932;2023-04-24T03:09:32;100554.38;;;9.57;54.86
78932;BME280;68331;53.362;55.932;2023-04-24T03:11:58;100558.47;;;9.74;54.27
78932;BME280;68331;53.362;55.932;2023-04-24T03:14:24;100558.72;;;10.12;53.66
78932;BME280;68331;53.362;55.932;2023-04-24T03:16:50;100566.34;;;10.72;51.96
78932;BME280;68331;53.362;55.932;2023-04-24T03:19:16;100557.91;;;12.05;49.04
78932;BME280;68331;53.362;55.932;2023-04-24T03:21:56;100546.56;;;13.78;44.31
78932;BME280;68331;53.362;55.932;2023-04-24T03:24:23;100559.81;;;14.30;42.55
78932;BME280;68331;53.362;55.932;2023-04-24T03:26:49;100561.88;;;14.47;42.89
78932;BME280;68331;53.362;55.932;2023-04-24T03:29:27;100551.75;;;13.56;43.27
78932;BME280;68331;53.362;55.932;2023-04-24T03:31:53;100566.84;;;12.67;45.44
78932;BME280;68331;53.362;55.932;2023-04-24T03:34:19;100577.06;;;13.09;44.85
78932;BME280;68331;53.362;55.932;2023-04-24T03:36:45;100568.44;;;14.61;41.71
78932;BME280;68331;53.362;55.932;2023-04-24T03:39:13;100566.38;;;16.03;38.92
78932;BME280;68331;53.362;55.932;2023-04-24T03:41:46;100559.09;;;18.65;34.21
78932;BME280;68331;53.362;55.932;2023-04-24T03:44:20;100558.78;;;20.71;30.04
78932;BME280;68331;53.362;55.932;2023-04-24T03:46:46;100564.72;;;20.76;29.22
78932;BME280;68331;53.362;55.932;2023-04-24T03:49:12;100563.47;;;18.84;31.60
78932;BME280;68331;53.362;55.932;2023-04-24T03:51:42;100564.56;;;17.58;33.69
78932;BME280;68331;53.362;55.932;2023-04-24T03:54:17;100569.41;;;16.55;35.92
78932;BME280;68331;53.362;55.932;2023-04-24T03:56:44;100572.41;;;16.47;36.16
78932;BME280;68331;53.362;55.932;2023-04-24T03:59:11;100580.00;;;16.96;35.52
78932;BME280;68331;53.362;55.932;2023-04-24T04:01:38;100577.31;;;18.41;33.07
78932;BME280;68331;53.362;55.932;2023-04-24T04:04:15;100575.06;;;20.24;30.05
78932;BME280;68331;53.362;55.932;2023-04-24T04:06:43;100570.78;;;22.55;26.85
78932;BME280;68331;53.362;55.932;2023-04-24T04:09:10;100570.38;;;24.77;23.37
78932;BME280;68331;53.362;55.932;2023-04-24T04:11:36;100570.41;;;25.98;22.09
78932;BME280;68331;53.362;55.932;2023-04-24T04:14:03;100569.88;;;25.06;22.46
78932;BME280;68331;53.362;55.932;2023-04-24T04:16:30;100572.81;;;24.80;22.61
78932;BME280;68331;53.362;55.932;2023-04-24T04:19:02;100578.03;;;24.02;22.95
78932;BME280;68331;53.362;55.932;2023-04-24T04:21:29;100576.88;;;24.64;22.25
78932;BME280;68331;53.362;55.932;2023-04-24T04:24:07;100578.97;;;24.94;22.13
78932;BME280;68331;53.362;55.932;2023-04-24T04:26:37;100579.47;;;22.84;23.89
78932;BME280;68331;53.362;55.932;2023-04-24T04:29:06;100580.69;;;22.67;24.55
78932;BME280;68331;53.362;55.932;2023-04-24T04:31:35;100587.25;;;22.38;25.06
78932;BME280;68331;53.362;55.932;2023-04-24T04:34:07;100584.34;;;22.28;25.43
78932;BME280;68331;53.362;55.932;2023-04-24T04:36:34;100589.16;;;22.74;24.49
78932;BME280;68331;53.362;55.932;2023-04-24T04:39:13;100588.69;;;24.39;22.99
78932;BME280;68331;53.362;55.932;2023-04-24T04:42:10;100587.06;;;25.16;21.77
78932;BME280;68331;53.362;55.932;2023-04-24T04:44:42;100592.84;;;22.86;23.72
78932;BME280;68331;53.362;55.932;2023-04-24T04:47:15;100604.47;;;21.12;26.45
78932;BME280;68331;53.362;55.932;2023-04-24T04:49:42;100606.03;;;19.36;28.92
78932;BME280;68331;53.362;55.932;2023-04-24T04:52:16;100613.09;;;19.37;29.29
78932;BME280;68331;53.362;55.932;2023-04-24T04:54:44;100612.38;;;20.57;27.12
78932;BME280;68331;53.362;55.932;2023-04-24T04:57:12;100608.69;;;20.88;27.05
78932;BME280;68331;53.362;55.932;2023-04-24T04:59:38;100608.72;;;21.58;25.87
78932;BME280;68331;53.362;55.932;2023-04-24T05:02:10;100604.38;;;23.01;24.16
78932;BME280;68331;53.362;55.932;2023-04-24T05:04:36;100603.06;;;23.06;23.56
78932;BME280;68331;53.362;55.932;2023-04-24T05:07:03;100607.66;;;23.54;23.11
78932;BME280;68331;53.362;55.932;2023-04-24T05:09:32;100611.41;;;23.27;23.55
78932;BME280;68331;53.362;55.932;2023-04-24T05:12:04;100617.31;;;21.90;25.56
78932;BME280;68331;53.362;55.932;2023-04-24T05:14:35;100612.81;;;23.70;23.70
78932;BME280;68331;53.362;55.932;2023-04-24T05:17:01;100605.97;;;25.27;21.11
78932;BME280;68331;53.362;55.932;2023-04-24T05:19:29;100618.53;;;25.72;21.00
78932;BME280;68331;53.362;55.932;2023-04-24T05:21:55;100614.41;;;27.45;19.13
78932;BME280;68331;53.362;55.932;2023-04-24T05:24:22;100604.66;;;29.26;16.62
78932;BME280;68331;53.362;55.932;2023-04-24T05:27:06;100610.28;;;29.70;16.54
78932;BME280;68331;53.362;55.932;2023-04-24T05:29:39;100607.38;;;29.53;16.23
78932;BME280;68331;53.362;55.932;2023-04-24T05:32:07;100617.75;;;28.56;17.11
78932;BME280;68331;53.362;55.932;2023-04-24T05:34:33;100611.72;;;26.84;18.85
78932;BME280;68331;53.362;55.932;2023-04-24T05:36:59;100619.66;;;25.58;20.18
78932;BME280;68331;53.362;55.932;2023-04-24T05:39:25;100617.28;;;25.21;20.47
78932;BME280;68331;53.362;55.932;2023-04-24T05:41:53;100621.78;;;25.10;20.53
78932;BME280;68331;53.362;55.932;2023-04-24T05:44:19;100608.13;;;26.53;19.25
78932;BME280;68331;53.362;55.932;2023-04-24T05:46:45;100616.09;;;27.36;18.51
78932;BME280;68331;53.362;55.932;2023-04-24T05:49:11;100615.97;;;27.07;19.17
78932;BME280;68331;53.362;55.932;2023-04-24T05:51:37;100614.91;;;27.70;18.41
78932;BME280;68331;53.362;55.932;2023-04-24T05:54:05;100619.94;;;29.82;15.80
78932;BME280;68331;53.362;55.932;2023-04-24T05:56:31;100623.19;;;32.10;13.95
78932;BME280;68331;53.362;55.932;2023-04-24T05:58:59;100623.56;;;33.60;13.07
78932;BME280;68331;53.362;55.932;2023-04-24T06:01:25;100621.53;;;33.85;13.01
78932;BME280;68331;53.362;55.932;2023-04-24T06:04:00;100622.59;;;34.07;12.72
78932;BME280;68331;53.362;55.932;2023-04-24T06:06:26;100614.13;;;35.07;12.54
78932;BME280;68331;53.362;55.932;2023-04-24T06:08:53;100617.88;;;34.38;11.57
78932;BME280;68331;53.362;55.932;2023-04-24T06:11:19;100626.31;;;34.52;12.23
78932;BME280;68331;53.362;55.932;2023-04-24T06:13:45;100610.38;;;35.44;11.18
78932;BME280;68331;53.362;55.932;2023-04-24T06:16:34;100610.94;;;36.12;10.31
78932;BME280;68331;53.362;55.932;2023-04-24T06:19:07;100615.16;;;36.08;10.10
78932;BME280;68331;53.362;55.932;2023-04-24T06:21:34;100607.81;;;36.65;10.14
78932;BME280;68331;53.362;55.932;2023-04-24T06:24:01;100603.75;;;36.32;10.10
78932;BME280;68331;53.362;55.932;2023-04-24T06:26:27;100593.81;;;37.29;9.73
78932;BME280;68331;53.362;55.932;2023-04-24T06:28:53;100594.91;;;37.35;9.40
78932;BME280;68331;53.362;55.932;2023-04-24T06:31:20;100592.25;;;37.61;9.46
78932;BME280;68331;53.362;55.932;2023-04-24T06:33:46;100597.41;;;37.91;8.57
78932;BME280;68331;53.362;55.932;2023-04-24T06:36:12;100598.09;;;38.59;8.78
78932;BME280;68331;53.362;55.932;2023-04-24T06:38:38;100587.25;;;38.84;8.19
78932;BME280;68331;53.362;55.932;2023-04-24T06:41:04;100589.66;;;39.26;8.38
78932;BME280;68331;53.362;55.932;2023-04-24T06:43:31;100590.53;;;40.78;7.33
78932;BME280;68331;53.362;55.932;2023-04-24T06:45:58;100585.00;;;41.64;6.66
78932;BME280;68331;53.362;55.932;2023-04-24T06:48:24;100576.25;;;42.91;6.54
78932;BME280;68331;53.362;55.932;2023-04-24T06:50:52;100577.75;;;43.34;5.97
78932;BME280;68331;53.362;55.932;2023-04-24T06:53:18;100574.28;;;43.55;6.18
78932;BME280;68331;53.362;55.932;2023-04-24T06:55:44;100583.50;;;43.44;6.39
78932;BME280;68331;53.362;55.932;2023-04-24T06:58:13;100587.84;;;42.53;5.96
78932;BME280;68331;53.362;55.932;2023-04-24T07:00:40;100591.91;;;41.24;6.24
78932;BME280;68331;53.362;55.932;2023-04-24T07:03:05;100600.84;;;38.33;7.01
78932;BME280;68331;53.362;55.932;2023-04-24T07:05:32;100581.00;;;35.23;7.87
78932;BME280;68331;53.362;55.932;2023-04-24T07:07:59;100593.31;;;32.50;9.15
78932;BME280;68331;53.362;55.932;2023-04-24T07:10:26;100596.19;;;30.98;10.28
78932;BME280;68331;53.362;55.932;2023-04-24T07:12:55;100597.31;;;29.63;11.22
78932;BME280;68331;53.362;55.932;2023-04-24T07:15:23;100587.66;;;27.81;11.96
78932;BME280;68331;53.362;55.932;2023-04-24T07:17:49;100598.75;;;26.57;13.35
78932;BME280;68331;53.362;55.932;2023-04-24T07:20:16;100607.59;;;25.85;14.29
78932;BME280;68331;53.362;55.932;2023-04-24T07:22:42;100604.59;;;25.44;14.52
78932;BME280;68331;53.362;55.932;2023-04-24T07:25:09;100606.47;;;24.99;14.74
78932;BME280;68331;53.362;55.932;2023-04-24T07:27:35;100611.09;;;24.74;15.31
78932;BME280;68331;53.362;55.932;2023-04-24T07:30:03;100604.44;;;24.45;15.05
78932;BME280;68331;53.362;55.932;2023-04-24T07:32:32;100613.91;;;24.26;15.27
78932;BME280;68331;53.362;55.932;2023-04-24T07:34:58;100606.25;;;24.09;15.09
78932;BME280;68331;53.362;55.932;2023-04-24T07:37:25;100611.13;;;23.80;15.38
78932;BME280;68331;53.362;55.932;2023-04-24T07:39:51;100613.22;;;23.76;15.13
78932;BME280;68331;53.362;55.932;2023-04-24T07:42:17;100619.13;;;23.81;15.16
78932;BME280;68331;53.362;55.932;2023-04-24T07:44:43;100610.91;;;23.83;15.12
78932;BME280;68331;53.362;55.932;2023-04-24T07:47:11;100609.38;;;23.92;15.56
78932;BME280;68331;53.362;55.932;2023-04-24T07:49:37;100609.19;;;24.06;15.14
78932;BME280;68331;53.362;55.932;2023-04-24T07:52:03;100605.47;;;23.96;15.29
78932;BME280;68331;53.362;55.932;2023-04-24T07:54:30;100602.13;;;23.92;15.11
78932;BME280;68331;53.362;55.932;2023-04-24T07:56:57;100603.00;;;23.93;15.17
78932;BME280;68331;53.362;55.932;2023-04-24T07:59:23;100597.59;;;23.93;15.83
78932;BME280;68331;53.362;55.932;2023-04-24T08:01:49;100599.72;;;24.00;15.33
78932;BME280;68331;53.362;55.932;2023-04-24T08:04:16;100595.50;;;24.20;15.42
78932;BME280;68331;53.362;55.932;2023-04-24T08:06:43;100606.34;;;24.31;14.95
78932;BME280;68331;53.362;55.932;2023-04-24T08:09:10;100600.03;;;24.20;14.65
78932;BME280;68331;53.362;55.932;2023-04-24T08:11:36;100600.38;;;24.15;14.76
78932;BME280;68331;53.362;55.932;2023-04-24T08:14:02;100601.38;;;24.14;14.89
78932;BME280;68331;53.362;55.932;2023-04-24T08:16:29;100595.88;;;24.16;14.90
78932;BME280;68331;53.362;55.932;2023-04-24T08:18:55;100612.06;;;24.16;15.47
78932;BME280;68331;53.362;55.932;2023-04-24T08:21:21;100610.22;;;24.16;15.02
78932;BME280;68331;53.362;55.932;2023-04-24T08:23:47;100600.75;;;24.10;15.14
78932;BME280;68331;53.362;55.932;2023-04-24T08:26:13;100608.75;;;24.23;15.11
78932;BME280;68331;53.362;55.932;2023-04-24T08:28:39;100600.69;;;24.34;15.08
78932;BME280;68331;53.362;55.932;2023-04-24T08:31:05;100612.66;;;24.54;14.79
78932;BME280;68331;53.362;55.932;2023-04-24T08:33:31;100616.13;;;24.68;15.09
78932;BME280;68331;53.362;55.932;2023-04-24T08:36:04;100613.53;;;24.66;15.17
78932;BME280;68331;53.362;55.932;2023-04-24T08:38:30;100604.31;;;24.46;14.58
78932;BME280;68331;53.362;55.932;2023-04-24T08:40:58;100617.78;;;24.46;14.99
78932;BME280;68331;53.362;55.932;2023-04-24T08:43:25;100601.13;;;24.52;14.78
78932;BME280;68331;53.362;55.932;2023-04-24T08:45:51;100606.53;;;24.41;14.92
78932;BME280;68331;53.362;55.932;2023-04-24T08:48:18;100598.31;;;24.54;14.95
78932;BME280;68331;53.362;55.932;2023-04-24T08:50:44;100601.41;;;24.61;15.19
78932;BME280;68331;53.362;55.932;2023-04-24T08:53:11;100585.22;;;24.72;14.83
78932;BME280;68331;53.362;55.932;2023-04-24T08:55:37;100597.63;;;24.86;14.77
78932;BME280;68331;53.362;55.932;2023-04-24T08:58:04;100604.59;;;24.77;14.40
78932;BME280;68331;53.362;55.932;2023-04-24T09:00:31;100605.31;;;24.56;14.61
78932;BME280;68331;53.362;55.932;2023-04-24T09:03:00;100610.22;;;24.63;14.56
78932;BME280;68331;53.362;55.932;2023-04-24T09:05:27;100602.13;;;24.63;14.30
78932;BME280;68331;53.362;55.932;2023-04-24T09:07:54;100606.91;;;24.59;14.36
78932;BME280;68331;53.362;55.932;2023-04-24T09:10:24;100593.66;;;24.56;14.58
78932;BME280;68331;53.362;55.932;2023-04-24T09:12:51;100593.50;;;24.46;14.32
78932;BME280;68331;53.362;55.932;2023-04-24T09:15:20;100592.19;;;24.28;14.39
78932;BME280;68331;53.362;55.932;2023-04-24T09:17:47;100585.56;;;24.45;14.61
78932;BME280;68331;53.362;55.932;2023-04-24T09:20:13;100578.00;;;24.37;14.56
78932;BME280;68331;53.362;55.932;2023-04-24T09:22:39;100586.25;;;24.35;14.42
78932;BME280;68331;53.362;55.932;2023-04-24T09:25:07;100589.09;;;24.45;14.34
78932;BME280;68331;53.362;55.932;2023-04-24T09:27:35;100601.50;;;24.48;14.38
78932;BME280;68331;53.362;55.932;2023-04-24T09:30:01;100597.34;;;24.55;15.00
78932;BME280;68331;53.362;55.932;2023-04-24T09:32:31;100589.38;;;24.65;14.63
78932;BME280;68331;53.362;55.932;2023-04-24T09:35:07;100587.91;;;24.72;13.92
78932;BME280;68331;53.362;55.932;2023-04-24T09:37:38;100564.72;;;24.58;14.18
78932;BME280;68331;53.362;55.932;2023-04-24T09:40:19;100574.53;;;24.59;14.48
78932;BME280;68331;53.362;55.932;2023-04-24T09:42:53;100591.22;;;24.64;14.51
78932;BME280;68331;53.362;55.932;2023-04-24T09:45:20;100593.06;;;24.64;14.37
78932;BME280;68331;53.362;55.932;2023-04-24T09:47:51;100586.91;;;24.73;14.29
78932;BME280;68331;53.362;55.932;2023-04-24T09:50:18;100580.41;;;24.75;14.09
78932;BME280;68331;53.362;55.932;2023-04-24T09:52:56;100583.38;;;24.83;14.11
78932;BME280;68331;53.362;55.932;2023-04-24T09:55:24;100582.88;;;24.78;14.17
78932;BME280;68331;53.362;55.932;2023-04-24T09:57:57;100584.97;;;24.75;14.61
78932;BME280;68331;53.362;55.932;2023-04-24T10:00:29;100579.47;;;24.76;14.64
78932;BME280;68331;53.362;55.932;2023-04-24T10:03:03;100584.09;;;24.63;13.94
78932;BME280;68331;53.362;55.932;2023-04-24T10:08:04;100578.56;;;24.42;14.45
78932;BME280;68331;53.362;55.932;2023-04-24T10:10:31;100571.13;;;24.57;14.41
78932;BME280;68331;53.362;55.932;2023-04-24T10:12:59;100564.97;;;24.55;14.32
78932;BME280;68331;53.362;55.932;2023-04-24T10:15:26;100572.19;;;24.54;14.68
78932;BME280;68331;53.362;55.932;2023-04-24T10:17:53;100575.72;;;24.44;14.31
78932;BME280;68331;53.362;55.932;2023-04-24T10:20:21;100567.22;;;24.26;14.42
78932;BME280;68331;53.362;55.932;2023-04-24T10:22:49;100579.53;;;24.41;14.18
78932;BME280;68331;53.362;55.932;2023-04-24T10:25:18;100575.72;;;24.44;14.04
78932;BME280;68331;53.362;55.932;2023-04-24T10:27:46;100569.84;;;24.50;13.72
78932;BME280;68331;53.362;55.932;2023-04-24T10:30:13;100570.94;;;24.47;13.46
78932;BME280;68331;53.362;55.932;2023-04-24T10:32:39;100569.38;;;24.56;13.85
78932;BME280;68331;53.362;55.932;2023-04-24T10:35:07;100573.06;;;24.66;13.63
78932;BME280;68331;53.362;55.932;2023-04-24T10:37:39;100560.44;;;24.67;13.98
78932;BME280;68331;53.362;55.932;2023-04-24T10:40:07;100565.22;;;24.52;13.74
78932;BME280;68331;53.362;55.932;2023-04-24T10:42:35;100562.75;;;24.49;14.18
78932;BME280;68331;53.362;55.932;2023-04-24T10:45:07;100554.44;;;24.28;13.92
78932;BME280;68331;53.362;55.932;2023-04-24T10:47:41;100567.16;;;24.14;13.89
78932;BME280;68331;53.362;55.932;2023-04-24T10:50:10;100563.00;;;24.22;14.50
78932;BME280;68331;53.362;55.932;2023-04-24T10:52:47;100563.22;;;24.43;13.92
78932;BME280;68331;53.362;55.932;2023-04-24T10:55:13;100560.66;;;24.41;14.58
78932;BME280;68331;53.362;55.932;2023-04-24T10:58:01;100560.88;;;24.38;14.40
78932;BME280;68331;53.362;55.932;2023-04-24T11:00:28;100552.94;;;24.48;14.82
78932;BME280;68331;53.362;55.932;2023-04-24T11:02:54;100560.16;;;24.47;14.43
78932;BME280;68331;53.362;55.932;2023-04-24T11:05:21;100555.03;;;24.44;14.10
78932;BME280;68331;53.362;55.932;2023-04-24T11:10:32;100564.47;;;24.61;14.52
78932;BME280;68331;53.362;55.932;2023-04-24T11:12:58;100558.84;;;24.64;14.67
78932;BME280;68331;53.362;55.932;2023-04-24T11:15:24;100547.25;;;24.40;14.47
78932;BME280;68331;53.362;55.932;2023-04-24T11:17:55;100556.38;;;24.14;14.78
78932;BME280;68331;53.362;55.932;2023-04-24T11:20:23;100549.16;;;24.15;15.19
78932;BME280;68331;53.362;55.932;2023-04-24T11:22:53;100551.28;;;24.23;14.48
78932;BME280;68331;53.362;55.932;2023-04-24T11:25:23;100551.75;;;24.28;14.58
78932;BME280;68331;53.362;55.932;2023-04-24T11:28:03;100550.34;;;24.46;15.17
78932;BME280;68331;53.362;55.932;2023-04-24T11:30:31;100549.50;;;24.46;14.73
78932;BME280;68331;53.362;55.932;2023-04-24T11:33:02;100541.06;;;24.15;14.69
78932;BME280;68331;53.362;55.932;2023-04-24T11:35:29;100533.34;;;24.10;15.00
78932;BME280;68331;53.362;55.932;2023-04-24T11:37:56;100535.91;;;24.12;14.90
78932;BME280;68331;53.362;55.932;2023-04-24T11:40:23;100539.09;;;24.06;14.92
78932;BME280;68331;53.362;55.932;2023-04-24T11:42:51;100533.44;;;24.09;14.86
78932;BME280;68331;53.362;55.932;2023-04-24T11:45:22;100539.00;;;24.19;14.70
78932;BME280;68331;53.362;55.932;2023-04-24T11:47:48;100533.06;;;24.02;14.64
78932;BME280;68331;53.362;55.932;2023-04-24T11:50:16;100527.66;;;23.91;14.58
78932;BME280;68331;53.362;55.932;2023-04-24T11:52:46;100527.44;;;23.70;14.95
78932;BME280;68331;53.362;55.932;2023-04-24T11:57:49;100525.63;;;23.58;15.54
78932;BME280;68331;53.362;55.932;2023-04-24T12:00:20;100527.44;;;23.70;15.36
78932;BME280;68331;53.362;55.932;2023-04-24T12:02:46;100521.59;;;23.76;15.92
78932;BME280;68331;53.362;55.932;2023-04-24T12:05:23;100513.50;;;23.76;15.24
78932;BME280;68331;53.362;55.932;2023-04-24T12:07:50;100513.22;;;23.68;15.52
78932;BME280;68331;53.362;55.932;2023-04-24T12:10:26;100508.28;;;23.62;15.64
78932;BME280;68331;53.362;55.932;2023-04-24T12:12:53;100504.63;;;23.63;15.30
78932;BME280;68331;53.362;55.932;2023-04-24T12:15:20;100505.66;;;23.73;15.35
78932;BME280;68331;53.362;55.932;2023-04-24T12:17:47;100505.19;;;23.79;15.30
78932;BME280;68331;53.362;55.932;2023-04-24T12:20:14;100506.50;;;23.74;15.33
78932;BME280;68331;53.362;55.932;2023-04-24T12:22:53;100505.31;;;23.78;15.68
78932;BME280;68331;53.362;55.932;2023-04-24T12:25:22;100504.47;;;23.77;15.47
78932;BME280;68331;53.362;55.932;2023-04-24T12:28:08;100511.41;;;23.69;15.55
78932;BME280;68331;53.362;55.932;2023-04-24T12:30:42;100505.81;;;23.35;15.27
78932;BME280;68331;53.362;55.932;2023-04-24T12:33:10;100502.41;;;23.33;15.98
78932;BME280;68331;53.362;55.932;2023-04-24T12:35:36;100499.44;;;23.49;15.83
78932;BME280;68331;53.362;55.932;2023-04-24T12:38:10;100507.06;;;23.55;15.56
78932;BME280;68331;53.362;55.932;2023-04-24T12:40:36;100500.78;;;23.54;15.88
78932;BME280;68331;53.362;55.932;2023-04-24T12:43:15;100504.06;;;23.47;15.41
78932;BME280;68331;53.362;55.932;2023-04-24T12:45:42;100503.75;;;23.38;15.46
78932;BME280;68331;53.362;55.932;2023-04-24T12:48:07;100504.97;;;23.34;15.78
78932;BME280;68331;53.362;55.932;2023-04-24T12:50:33;100506.06;;;23.32;15.89
78932;BME280;68331;53.362;55.932;2023-04-24T12:53:00;100503.19;;;23.22;15.62
78932;BME280;68331;53.362;55.932;2023-04-24T12:55:26;100496.41;;;23.16;16.01